Barrett, North Carolina
Current Conditions -  °F | °C
As of 8:55 AM on Saturday 25 Oct 2014 (Local Time) from KHLX Reporting Station
Clear Clear  
Wind Chill: 44°   Ceiling: Unl
Heat Index: 47°   Visibility: 10mi
Dew Point: 38°   Wind: 6mph
Humidity: 70%   Direction: 300°WNW
Pressure: 30.07"   Gusts: NA
Location:  36.5243°N, 80.9743°W
Report Text: KHLX 251255Z AUTO 30005KT 10SM CLR 08/03 A3007 RMK AO2 T00830031
Loading
Personal Weather Stations






























Interactive Weather Map
Tropical Storm Tracking
New forecast layout! Learn more

10-Day Weather Forecast

Advertisements
Track Severe Weather on mobile